createdAt,value
2017-12-09T00:02:01.321Z,1002.40
2017-12-09T00:06:56.968Z,1002.36
2017-12-09T00:11:52.628Z,1002.42
2017-12-09T00:16:48.099Z,1002.48
2017-12-09T00:21:43.823Z,1002.56
2017-12-09T00:26:39.344Z,1002.45
2017-12-09T00:31:34.955Z,1002.42
2017-12-09T00:36:31.294Z,1002.52
2017-12-09T00:41:27.824Z,1002.43
2017-12-09T00:46:23.680Z,1002.47
2017-12-09T00:51:20.181Z,1002.46
2017-12-09T00:56:15.453Z,1002.50
2017-12-09T01:01:11.111Z,1002.38
2017-12-09T01:06:07.500Z,1002.51
2017-12-09T01:11:03.014Z,1002.58
2017-12-09T01:15:58.671Z,1002.59
2017-12-09T01:20:55.129Z,1002.65
2017-12-09T01:25:51.130Z,1002.73
2017-12-09T01:30:49.220Z,1002.65
2017-12-09T01:35:44.368Z,1002.68
2017-12-09T01:40:40.018Z,1002.65
2017-12-09T01:45:35.638Z,1002.56
2017-12-09T01:50:31.342Z,1002.70
2017-12-09T01:55:27.049Z,1002.68
2017-12-09T02:00:22.732Z,1002.69
2017-12-09T02:05:17.855Z,1002.61
2017-12-09T02:10:14.765Z,1002.77
2017-12-09T02:15:10.013Z,1002.78
2017-12-09T02:20:05.473Z,1002.62
2017-12-09T02:25:01.332Z,1002.64
2017-12-09T02:29:56.595Z,1002.66
2017-12-09T02:34:54.579Z,1002.56
2017-12-09T02:39:49.699Z,1002.56
2017-12-09T02:44:45.388Z,1002.50
2017-12-09T02:49:40.911Z,1002.66
2017-12-09T02:54:37.290Z,1002.44
2017-12-09T02:59:32.712Z,1002.47
2017-12-09T03:04:28.356Z,1002.49
2017-12-09T03:09:25.098Z,1002.52
2017-12-09T03:14:20.658Z,1002.48
2017-12-09T03:19:17.073Z,1002.29
2017-12-09T03:24:12.723Z,1002.31
2017-12-09T03:29:09.597Z,1002.27
2017-12-09T03:34:04.860Z,1002.29
2017-12-09T03:39:01.234Z,1002.24
2017-12-09T03:43:57.081Z,1002.26
2017-12-09T03:48:53.605Z,1002.13
2017-12-09T03:53:50.117Z,1002.14
2017-12-09T03:58:46.450Z,1002.17
2017-12-09T04:03:41.835Z,1002.04
2017-12-09T04:08:37.396Z,1002.18
2017-12-09T04:13:32.879Z,1002.02
2017-12-09T04:18:28.387Z,1002.08
2017-12-09T04:23:24.322Z,1001.92
2017-12-09T04:28:19.479Z,1001.99
2017-12-09T04:33:16.073Z,1001.98
2017-12-09T04:38:11.457Z,1001.94
2017-12-09T04:43:07.048Z,1001.94
2017-12-09T04:48:02.762Z,1001.90
2017-12-09T04:52:58.362Z,1001.84
2017-12-09T04:57:55.550Z,1001.97
2017-12-09T05:02:50.903Z,1001.87
2017-12-09T05:07:46.762Z,1002.04
2017-12-09T05:12:44.045Z,1001.98
2017-12-09T05:17:40.421Z,1002.01
2017-12-09T05:22:36.345Z,1001.98
2017-12-09T05:27:31.989Z,1001.98
2017-12-09T05:32:28.673Z,1001.96
2017-12-09T05:37:24.718Z,1001.94
2017-12-09T05:42:21.454Z,1002.08
2017-12-09T05:47:17.844Z,1002.11
2017-12-09T05:52:13.064Z,1002.10
2017-12-09T05:57:08.888Z,1001.99
2017-12-09T06:02:04.974Z,1002.10
2017-12-09T06:07:00.230Z,1002.12
2017-12-09T06:11:57.170Z,1002.04
2017-12-09T06:16:52.317Z,1002.05
2017-12-09T06:21:47.771Z,1002.05
2017-12-09T06:26:43.453Z,1002.13
2017-12-09T06:31:38.656Z,1002.09
2017-12-09T06:36:34.381Z,1002.12
2017-12-09T06:41:32.035Z,1002.09
2017-12-09T06:46:27.275Z,1002.14
2017-12-09T06:51:23.319Z,1002.11
2017-12-09T06:56:18.977Z,1002.15
2017-12-09T07:01:14.631Z,1002.32
2017-12-09T07:06:10.203Z,1002.38
2017-12-09T07:11:07.020Z,1002.40
2017-12-09T07:16:02.548Z,1002.45
2017-12-09T07:20:58.867Z,1002.41
2017-12-09T07:25:54.302Z,1002.73
2017-12-09T07:30:49.953Z,1002.72
2017-12-09T07:35:45.758Z,1002.79
2017-12-09T07:40:42.179Z,1002.73
2017-12-09T07:45:37.484Z,1002.98
2017-12-09T07:50:33.087Z,1002.80
2017-12-09T07:55:28.626Z,1002.73
2017-12-09T08:00:25.245Z,1002.78
2017-12-09T08:05:21.832Z,1002.70
2017-12-09T08:10:17.385Z,1002.85
2017-12-09T08:15:13.160Z,1002.95
2017-12-09T08:20:10.024Z,1003.03
2017-12-09T08:25:05.627Z,1003.01
2017-12-09T08:30:02.259Z,1003.20
2017-12-09T08:34:57.660Z,1003.25
2017-12-09T08:39:53.205Z,1003.24
2017-12-09T08:44:48.937Z,1003.14
2017-12-09T08:49:45.797Z,1003.32
2017-12-09T08:54:41.153Z,1003.33
2017-12-09T08:59:36.800Z,1003.38
2017-12-09T09:04:32.477Z,1003.26
2017-12-09T09:09:28.169Z,1003.22
2017-12-09T09:14:23.864Z,1003.22
2017-12-09T09:19:19.431Z,1003.43
2017-12-09T09:24:16.148Z,1003.44
2017-12-09T09:29:11.388Z,1003.59
2017-12-09T09:34:08.197Z,1003.64
2017-12-09T09:39:03.556Z,1003.51
2017-12-09T09:43:59.435Z,1003.60
2017-12-09T09:48:56.062Z,1003.57
2017-12-09T09:53:51.251Z,1003.63
2017-12-09T09:58:47.054Z,1003.51
2017-12-09T10:03:43.160Z,1003.47
2017-12-09T10:08:39.414Z,1003.29
2017-12-09T10:13:34.966Z,1003.55
2017-12-09T10:18:31.652Z,1003.64
2017-12-09T10:23:28.232Z,1003.62
2017-12-09T10:28:23.466Z,1003.62
2017-12-09T10:33:19.052Z,1003.59
2017-12-09T10:38:15.797Z,1003.51
2017-12-09T10:43:11.248Z,1003.63
2017-12-09T10:48:06.836Z,1003.57
2017-12-09T10:53:02.236Z,1003.69
2017-12-09T10:57:58.730Z,1003.67
2017-12-09T11:02:54.610Z,1003.65
2017-12-09T11:07:51.068Z,1003.50
2017-12-09T11:12:46.942Z,1003.52
2017-12-09T11:17:42.979Z,1003.55
2017-12-09T11:22:40.178Z,1003.48
2017-12-09T11:27:36.589Z,1003.49
2017-12-09T11:32:31.926Z,1003.29
2017-12-09T11:37:27.676Z,1003.49
2017-12-09T11:42:23.626Z,1003.66
2017-12-09T11:47:19.316Z,1003.71
2017-12-09T11:52:15.776Z,1003.67
2017-12-09T11:57:11.497Z,1003.65
2017-12-09T12:02:07.021Z,1003.58
2017-12-09T12:07:04.245Z,1003.68
2017-12-09T12:11:59.682Z,1003.69
2017-12-09T12:16:56.163Z,1003.68
2017-12-09T12:21:51.778Z,1003.60
2017-12-09T12:26:47.513Z,1003.63
2017-12-09T12:31:43.231Z,1003.73
2017-12-09T12:36:38.868Z,1003.66
2017-12-09T12:41:34.489Z,1003.68
2017-12-09T12:46:30.227Z,1003.69
2017-12-09T12:51:26.767Z,1003.72
2017-12-09T12:56:22.403Z,1003.71
2017-12-09T13:01:17.851Z,1003.58
2017-12-09T13:06:15.224Z,1003.63
2017-12-09T13:11:10.580Z,1003.62
2017-12-09T13:16:06.247Z,1003.62
2017-12-09T13:21:01.849Z,1003.51
2017-12-09T13:25:58.058Z,1003.52
2017-12-09T13:30:53.896Z,1003.57
2017-12-09T13:35:50.862Z,1003.47
2017-12-09T13:40:46.278Z,1003.44
2017-12-09T13:45:41.488Z,1003.41
2017-12-09T13:50:37.570Z,1003.32
2017-12-09T13:55:33.306Z,1003.33
2017-12-09T14:00:30.007Z,1003.30
2017-12-09T14:05:25.564Z,1003.21
2017-12-09T14:10:22.060Z,1003.24
2017-12-09T14:15:17.831Z,1003.28
2017-12-09T14:20:14.610Z,1003.20
2017-12-09T14:25:11.099Z,1003.04
2017-12-09T14:30:06.314Z,1003.07
2017-12-09T14:35:01.936Z,1002.94
2017-12-09T14:39:58.416Z,1002.89
2017-12-09T14:44:53.702Z,1002.93
2017-12-09T14:49:49.408Z,1002.95
2017-12-09T14:54:45.349Z,1002.98
2017-12-09T14:59:40.903Z,1002.99
2017-12-09T15:04:36.567Z,1002.94
2017-12-09T15:09:32.233Z,1002.96
2017-12-09T15:14:28.671Z,1002.88
2017-12-09T15:19:25.566Z,1002.93
2017-12-09T15:24:21.010Z,1002.85
2017-12-09T15:29:17.805Z,1002.96
2017-12-09T15:34:13.044Z,1002.95
2017-12-09T15:39:09.294Z,1002.93
2017-12-09T15:44:05.802Z,1002.98
2017-12-09T15:49:01.241Z,1002.94
2017-12-09T15:53:56.980Z,1002.88
2017-12-09T15:58:53.169Z,1002.93
2017-12-09T16:03:48.962Z,1002.95
2017-12-09T16:08:44.554Z,1002.80
2017-12-09T16:13:41.223Z,1002.78
2017-12-09T16:18:36.505Z,1002.89
2017-12-09T16:23:32.278Z,1002.75
2017-12-09T16:28:27.805Z,1002.81
2017-12-09T16:33:24.690Z,1002.82
2017-12-09T16:38:21.273Z,1002.73
2017-12-09T16:43:17.667Z,1002.81
2017-12-09T16:48:13.139Z,1002.71
2017-12-09T16:53:09.690Z,1002.76
2017-12-09T16:58:05.068Z,1002.75
2017-12-09T17:03:01.734Z,1002.82
2017-12-09T17:07:57.126Z,1002.90
2017-12-09T17:12:52.658Z,1002.96
2017-12-09T17:17:48.577Z,1003.00
2017-12-09T17:22:44.326Z,1002.98
2017-12-09T17:27:39.913Z,1003.10
2017-12-09T17:32:35.532Z,1002.93
2017-12-09T17:37:33.136Z,1002.90
2017-12-09T17:42:28.318Z,1002.91
2017-12-09T17:47:24.047Z,1002.95
2017-12-09T17:52:19.721Z,1002.87
2017-12-09T17:57:15.200Z,1002.78
2017-12-09T18:02:11.650Z,1002.83
2017-12-09T18:07:06.892Z,1002.70
2017-12-09T18:12:02.740Z,1002.72
2017-12-09T18:16:58.272Z,1002.58
2017-12-09T18:21:54.015Z,1002.52
2017-12-09T18:26:49.758Z,1002.53
2017-12-09T18:31:46.048Z,1002.56
2017-12-09T18:36:42.987Z,1002.50
2017-12-09T18:41:39.047Z,1002.50
2017-12-09T18:46:35.836Z,1002.43
2017-12-09T18:51:31.715Z,1002.47
2017-12-09T18:56:27.648Z,1002.36
2017-12-09T19:01:22.905Z,1002.34
2017-12-09T19:06:18.526Z,1002.22
2017-12-09T19:11:15.098Z,1002.35
2017-12-09T19:16:11.389Z,1002.27
2017-12-09T19:21:06.855Z,1002.41
2017-12-09T19:26:03.348Z,1002.36
2017-12-09T19:30:59.733Z,1002.27
2017-12-09T19:35:55.188Z,1002.29
2017-12-09T19:40:50.838Z,1002.36
2017-12-09T19:45:47.502Z,1002.27
2017-12-09T19:50:42.875Z,1002.07
2017-12-09T19:55:38.409Z,1002.18
2017-12-09T20:00:34.915Z,1002.16
2017-12-09T20:05:31.951Z,1002.09
2017-12-09T20:10:27.288Z,1001.92
2017-12-09T20:15:24.012Z,1001.93
2017-12-09T20:20:19.345Z,1001.92
2017-12-09T20:25:15.913Z,1002.07
2017-12-09T20:30:11.214Z,1002.09
2017-12-09T20:35:07.601Z,1001.87
2017-12-09T20:40:03.142Z,1001.84
2017-12-09T20:44:58.877Z,1001.73
2017-12-09T20:49:54.536Z,1001.67
2017-12-09T20:54:50.252Z,1001.62
2017-12-09T20:59:46.002Z,1001.57
2017-12-09T21:04:43.394Z,1001.55
2017-12-09T21:09:39.013Z,1001.38
2017-12-09T21:14:34.708Z,1001.38
2017-12-09T21:19:30.384Z,1001.31
2017-12-09T21:24:26.031Z,1001.23
2017-12-09T21:29:21.698Z,1001.14
2017-12-09T21:34:17.360Z,1000.97
2017-12-09T21:39:13.070Z,1000.95
2017-12-09T21:44:09.485Z,1000.91
2017-12-09T21:49:05.695Z,1000.88
2017-12-09T21:54:01.454Z,1000.81
2017-12-09T21:58:57.777Z,1000.65
2017-12-09T22:03:54.025Z,1000.61
2017-12-09T22:08:48.890Z,1000.50
2017-12-09T22:13:45.119Z,1000.48
2017-12-09T22:18:41.318Z,1000.37
2017-12-09T22:23:36.927Z,1000.31
2017-12-09T22:28:32.413Z,1000.29
2017-12-09T22:33:28.015Z,1000.24
2017-12-09T22:38:23.644Z,1000.10
2017-12-09T22:43:20.188Z,1000.05
2017-12-09T22:48:15.568Z,1000.02
2017-12-09T22:53:12.059Z,1000.03
2017-12-09T22:58:08.425Z,999.99
2017-12-09T23:03:03.780Z,999.84
2017-12-09T23:08:00.468Z,999.79
2017-12-09T23:12:57.199Z,999.69
2017-12-09T23:17:52.687Z,999.56
2017-12-09T23:22:48.370Z,999.64
2017-12-09T23:27:44.936Z,999.54
2017-12-09T23:32:40.873Z,999.50
2017-12-09T23:37:36.432Z,999.38
2017-12-09T23:42:33.049Z,999.22
2017-12-09T23:47:28.591Z,999.18
2017-12-09T23:52:24.112Z,999.06
2017-12-09T23:57:19.933Z,999.14
